createdAt,value
2022-10-30T00:01:04.181Z,100770.28
2022-10-30T00:03:30.541Z,100767.69
2022-10-30T00:05:56.855Z,100774.25
2022-10-30T00:08:23.682Z,100772.63
2022-10-30T00:10:49.985Z,100771.19
2022-10-30T00:13:17.593Z,100769.59
2022-10-30T00:15:54.033Z,100761.03
2022-10-30T00:18:20.700Z,100762.97
2022-10-30T00:20:47.856Z,100768.75
2022-10-30T00:23:14.474Z,100764.25
2022-10-30T00:25:40.796Z,100767.28
2022-10-30T00:28:07.598Z,100753.44
2022-10-30T00:30:34.628Z,100758.59
2022-10-30T00:33:01.415Z,100763.13
2022-10-30T00:35:28.062Z,100757.34
2022-10-30T00:37:54.593Z,100757.47
2022-10-30T00:40:21.850Z,100753.91
2022-10-30T00:42:48.245Z,100749.25
2022-10-30T00:45:17.470Z,100759.81
2022-10-30T00:47:51.680Z,100756.91
2022-10-30T00:50:36.804Z,100753.97
2022-10-30T00:53:14.446Z,100758.16
2022-10-30T00:55:47.760Z,100756.72
2022-10-30T00:58:19.452Z,100761.69
2022-10-30T01:00:50.736Z,100758.78
2022-10-30T01:03:19.046Z,100755.56
2022-10-30T01:05:50.009Z,100762.78
2022-10-30T01:08:16.442Z,100749.59
2022-10-30T01:10:43.601Z,100755.69
2022-10-30T01:13:10.851Z,100760.16
2022-10-30T01:15:46.836Z,100761.41
2022-10-30T01:18:46.298Z,100760.22
2022-10-30T01:21:33.654Z,100763.84
2022-10-30T01:24:11.549Z,100766.31
2022-10-30T01:27:18.970Z,100769.81
2022-10-30T01:29:50.749Z,100760.69
2022-10-30T01:32:23.256Z,100772.56
2022-10-30T01:35:08.232Z,100779.56
2022-10-30T01:37:43.941Z,100774.28
2022-10-30T01:40:13.368Z,100771.25
2022-10-30T01:42:54.558Z,100768.00
2022-10-30T01:45:51.813Z,100776.50
2022-10-30T01:48:42.893Z,100782.97
2022-10-30T01:51:50.118Z,100768.31
2022-10-30T01:54:36.793Z,100773.78
2022-10-30T01:57:21.472Z,100774.28
2022-10-30T01:59:59.871Z,100773.47
2022-10-30T02:02:26.428Z,100775.28
2022-10-30T02:04:53.183Z,100778.00
2022-10-30T02:07:19.538Z,100772.06
2022-10-30T02:09:45.939Z,100772.56
2022-10-30T02:12:13.765Z,100775.47
2022-10-30T02:14:45.014Z,100767.91
2022-10-30T02:17:12.136Z,100779.09
2022-10-30T02:19:38.509Z,100764.38
2022-10-30T02:22:05.454Z,100765.34
2022-10-30T02:24:32.291Z,100762.44
2022-10-30T02:26:58.794Z,100756.53
2022-10-30T02:29:25.091Z,100762.09
2022-10-30T02:31:51.487Z,100763.75
2022-10-30T02:34:17.799Z,100760.06
2022-10-30T02:36:44.198Z,100766.81
2022-10-30T02:39:10.682Z,100763.34
2022-10-30T02:41:37.549Z,100769.94
2022-10-30T02:44:05.605Z,100761.84
2022-10-30T02:46:32.501Z,100768.13
2022-10-30T02:48:58.854Z,100756.22
2022-10-30T02:51:25.241Z,100764.53
2022-10-30T02:53:51.552Z,100765.34
2022-10-30T02:56:17.882Z,100767.09
2022-10-30T02:58:44.184Z,100764.78
2022-10-30T03:01:16.005Z,100759.44
2022-10-30T03:03:43.293Z,100765.59
2022-10-30T03:06:11.703Z,100760.28
2022-10-30T03:08:38.049Z,100760.91
2022-10-30T03:11:08.022Z,100762.50
2022-10-30T03:13:35.744Z,100766.66
2022-10-30T03:16:04.223Z,100767.97
2022-10-30T03:18:30.598Z,100764.44
2022-10-30T03:21:02.101Z,100766.66
2022-10-30T03:23:29.062Z,100764.44
2022-10-30T03:25:57.232Z,100772.00
2022-10-30T03:28:26.094Z,100778.38
2022-10-30T03:30:58.469Z,100767.47
2022-10-30T03:33:24.944Z,100768.47
2022-10-30T03:35:51.614Z,100765.22
2022-10-30T03:38:17.955Z,100759.09
2022-10-30T03:40:44.258Z,100767.16
2022-10-30T03:43:10.598Z,100772.00
2022-10-30T03:45:36.899Z,100769.25
2022-10-30T03:48:05.256Z,100766.28
2022-10-30T03:50:32.554Z,100763.97
2022-10-30T03:52:58.937Z,100772.34
2022-10-30T03:55:25.839Z,100764.50
2022-10-30T03:57:52.163Z,100777.50
2022-10-30T04:00:18.957Z,100770.91
2022-10-30T04:02:49.907Z,100780.41
2022-10-30T04:05:18.812Z,100776.59
2022-10-30T04:07:45.547Z,100771.44
2022-10-30T04:10:13.118Z,100782.84
2022-10-30T04:12:39.475Z,100782.47
2022-10-30T04:15:07.602Z,100779.09
2022-10-30T04:17:34.662Z,100775.06
2022-10-30T04:20:01.002Z,100777.00
2022-10-30T04:22:27.795Z,100772.66
2022-10-30T04:24:54.116Z,100775.69
2022-10-30T04:27:20.627Z,100769.31
2022-10-30T04:29:47.151Z,100764.78
2022-10-30T04:32:13.965Z,100765.91
2022-10-30T04:34:40.298Z,100771.38
2022-10-30T04:37:07.016Z,100763.97
2022-10-30T04:39:33.502Z,100772.16
2022-10-30T04:41:59.831Z,100768.63
2022-10-30T04:44:26.130Z,100769.75
2022-10-30T04:46:52.435Z,100760.78
2022-10-30T04:49:18.738Z,100763.81
2022-10-30T04:51:45.055Z,100775.63
2022-10-30T04:54:11.354Z,100766.97
2022-10-30T04:56:37.686Z,100770.63
2022-10-30T04:59:04.052Z,100777.81
2022-10-30T05:01:30.429Z,100761.75
2022-10-30T05:03:56.778Z,100765.50
2022-10-30T05:06:26.503Z,100770.34
2022-10-30T05:08:52.987Z,100769.97
2022-10-30T05:11:19.524Z,100767.97
2022-10-30T05:13:45.821Z,100769.59
2022-10-30T05:16:12.136Z,100776.88
2022-10-30T05:18:38.432Z,100771.44
2022-10-30T05:21:04.968Z,100763.38
2022-10-30T05:23:31.316Z,100768.41
2022-10-30T05:26:00.078Z,100762.44
2022-10-30T05:28:26.401Z,100760.34
2022-10-30T05:30:53.489Z,100756.22
2022-10-30T05:33:19.934Z,100768.28
2022-10-30T05:35:46.386Z,100765.88
2022-10-30T05:38:13.304Z,100769.50
2022-10-30T05:40:39.725Z,100770.78
2022-10-30T05:43:06.426Z,100780.97
2022-10-30T05:45:32.799Z,100776.94
2022-10-30T05:48:01.824Z,100774.91
2022-10-30T05:50:29.133Z,100783.13
2022-10-30T05:52:56.674Z,100788.56
2022-10-30T05:55:23.315Z,100780.41
2022-10-30T05:57:49.618Z,100776.06
2022-10-30T06:00:16.286Z,100779.09
2022-10-30T06:02:42.672Z,100789.56
2022-10-30T06:05:09.070Z,100781.47
2022-10-30T06:07:35.349Z,100788.09
2022-10-30T06:10:01.637Z,100782.28
2022-10-30T06:12:27.943Z,100787.19
2022-10-30T06:14:54.234Z,100798.22
2022-10-30T06:17:20.549Z,100800.81
2022-10-30T06:19:46.871Z,100795.59
2022-10-30T06:22:13.193Z,100816.31
2022-10-30T06:24:39.509Z,100809.28
2022-10-30T06:27:05.892Z,100809.06
2022-10-30T06:29:32.186Z,100809.06
2022-10-30T06:32:00.831Z,100810.16
2022-10-30T06:34:30.210Z,100815.38
2022-10-30T06:36:56.571Z,100806.50
2022-10-30T06:39:22.937Z,100805.16
2022-10-30T06:41:49.253Z,100808.19
2022-10-30T06:44:15.557Z,100808.69
2022-10-30T06:46:41.910Z,100798.84
2022-10-30T06:49:08.268Z,100798.19
2022-10-30T06:51:34.621Z,100802.19
2022-10-30T06:54:00.929Z,100804.63
2022-10-30T06:56:27.242Z,100807.50
2022-10-30T06:58:53.575Z,100800.66
2022-10-30T07:01:22.731Z,100799.44
2022-10-30T07:03:49.079Z,100795.56
2022-10-30T07:06:15.420Z,100791.66
2022-10-30T07:08:41.799Z,100787.97
2022-10-30T07:11:08.107Z,100789.38
2022-10-30T07:13:35.417Z,100784.88
2022-10-30T07:16:01.734Z,100781.81
2022-10-30T07:18:28.047Z,100787.69
2022-10-30T07:20:55.566Z,100785.69
2022-10-30T07:23:22.119Z,100791.84
2022-10-30T07:25:48.435Z,100787.28
2022-10-30T07:28:14.866Z,100800.22
2022-10-30T07:30:41.181Z,100799.38
2022-10-30T07:33:09.172Z,100797.56
2022-10-30T07:35:36.405Z,100809.66
2022-10-30T07:38:04.776Z,100802.09
2022-10-30T07:40:31.954Z,100811.25
2022-10-30T07:43:00.630Z,100801.75
2022-10-30T07:45:27.681Z,100815.19
2022-10-30T07:47:54.643Z,100824.56
2022-10-30T07:50:21.194Z,100819.28
2022-10-30T07:52:47.751Z,100829.56
2022-10-30T07:55:14.396Z,100827.59
2022-10-30T07:57:42.337Z,100827.09
2022-10-30T08:00:11.544Z,100830.84
2022-10-30T08:02:38.105Z,100834.16
2022-10-30T08:05:05.660Z,100836.78
2022-10-30T08:07:33.965Z,100833.13
2022-10-30T08:10:00.352Z,100844.78
2022-10-30T08:12:27.288Z,100845.81
2022-10-30T08:14:53.861Z,100841.22
2022-10-30T08:17:21.185Z,100839.50
2022-10-30T08:19:47.606Z,100836.22
2022-10-30T08:22:13.969Z,100832.47
2022-10-30T08:24:40.301Z,100836.88
2022-10-30T08:27:06.785Z,100834.31
2022-10-30T08:29:33.207Z,100840.59
2022-10-30T08:31:59.488Z,100838.06
2022-10-30T08:34:25.918Z,100846.94
2022-10-30T08:36:52.477Z,100847.09
2022-10-30T08:39:19.160Z,100851.44
2022-10-30T08:41:45.997Z,100849.50
2022-10-30T08:44:12.664Z,100857.41
2022-10-30T08:46:38.973Z,100845.03
2022-10-30T08:49:05.456Z,100850.19
2022-10-30T08:51:33.420Z,100845.34
2022-10-30T08:54:00.220Z,100844.53
2022-10-30T08:56:26.989Z,100844.84
2022-10-30T08:58:53.423Z,100843.19
2022-10-30T09:01:19.859Z,100838.81
2022-10-30T09:03:46.235Z,100837.78
2022-10-30T09:06:12.553Z,100840.31
2022-10-30T09:08:38.901Z,100832.81
2022-10-30T09:11:05.518Z,100831.53
2022-10-30T09:13:31.834Z,100824.06
2022-10-30T09:16:01.284Z,100826.94
2022-10-30T09:18:28.309Z,100827.47
2022-10-30T09:20:54.653Z,100826.09
2022-10-30T09:23:21.065Z,100824.06
2022-10-30T09:25:47.408Z,100827.00
2022-10-30T09:28:13.768Z,100821.13
2022-10-30T09:30:40.073Z,100810.56
2022-10-30T09:33:06.404Z,100808.25
2022-10-30T09:35:32.745Z,100801.00
2022-10-30T09:37:59.339Z,100803.75
2022-10-30T09:40:44.258Z,100807.16
2022-10-30T09:43:48.311Z,100810.84
2022-10-30T09:46:23.419Z,100807.31
2022-10-30T09:49:04.879Z,100798.97
2022-10-30T09:51:43.383Z,100796.25
2022-10-30T09:54:22.026Z,100803.47
2022-10-30T09:56:59.528Z,100802.81
2022-10-30T09:59:38.657Z,100796.75
2022-10-30T10:02:11.066Z,100796.28
2022-10-30T10:04:44.570Z,100798.13
2022-10-30T10:07:21.430Z,100803.72
2022-10-30T10:09:52.455Z,100790.13
2022-10-30T10:12:43.668Z,100788.38
2022-10-30T10:15:24.950Z,100787.47
2022-10-30T10:17:51.798Z,100785.19
2022-10-30T10:20:32.059Z,100784.63
2022-10-30T10:23:02.235Z,100788.16
2022-10-30T10:25:30.951Z,100789.78
2022-10-30T10:28:36.808Z,100799.16
2022-10-30T10:31:12.320Z,100787.78
2022-10-30T10:33:57.827Z,100789.63
2022-10-30T10:36:35.087Z,100791.47
2022-10-30T10:39:30.256Z,100789.56
2022-10-30T10:42:12.092Z,100797.81
2022-10-30T10:44:46.493Z,100796.84
2022-10-30T10:47:12.757Z,100789.25
2022-10-30T10:49:52.868Z,100784.56
2022-10-30T10:52:24.032Z,100782.06
2022-10-30T10:55:00.845Z,100793.34
2022-10-30T10:57:36.534Z,100781.91
2022-10-30T11:00:20.707Z,100782.50
2022-10-30T11:03:13.608Z,100774.94
2022-10-30T11:05:51.494Z,100774.78
2022-10-30T11:08:33.111Z,100766.50
2022-10-30T11:11:02.074Z,100767.03
2022-10-30T11:13:35.876Z,100770.34
2022-10-30T11:16:05.098Z,100771.94
2022-10-30T11:18:32.034Z,100765.00
2022-10-30T11:21:23.721Z,100757.03
2022-10-30T11:23:50.826Z,100748.50
2022-10-30T11:26:17.087Z,100741.72
2022-10-30T11:29:12.185Z,100738.59
2022-10-30T11:31:41.193Z,100735.84
2022-10-30T11:34:19.409Z,100731.13
2022-10-30T11:36:51.088Z,100736.47
2022-10-30T11:39:18.426Z,100731.75
2022-10-30T11:41:56.749Z,100722.34
2022-10-30T11:44:28.805Z,100720.25
2022-10-30T11:46:55.952Z,100722.59
2022-10-30T11:49:33.405Z,100724.91
2022-10-30T11:52:00.428Z,100722.84
2022-10-30T11:54:27.232Z,100726.50
2022-10-30T11:56:54.572Z,100723.63
2022-10-30T11:59:23.818Z,100723.38
2022-10-30T12:02:21.659Z,100726.31
2022-10-30T12:04:50.254Z,100727.28
2022-10-30T12:07:24.312Z,100730.97
2022-10-30T12:09:51.009Z,100725.19
2022-10-30T12:12:22.114Z,100725.59
2022-10-30T12:14:48.562Z,100721.63
2022-10-30T12:17:17.737Z,100726.31
2022-10-30T12:19:50.410Z,100723.13
2022-10-30T12:22:32.628Z,100719.28
2022-10-30T12:25:02.801Z,100720.34
2022-10-30T12:27:32.143Z,100713.69
2022-10-30T12:30:10.015Z,100714.66
2022-10-30T12:32:50.239Z,100713.44
2022-10-30T12:35:37.180Z,100703.63
2022-10-30T12:38:09.606Z,100712.53
2022-10-30T12:40:42.697Z,100712.97
2022-10-30T12:43:26.094Z,100718.34
2022-10-30T12:46:01.453Z,100711.38
2022-10-30T12:48:41.662Z,100707.31
2022-10-30T12:51:24.245Z,100707.31
2022-10-30T12:54:14.945Z,100707.13
2022-10-30T12:56:45.880Z,100703.38
2022-10-30T12:59:32.978Z,100707.72
2022-10-30T13:02:23.945Z,100705.78
2022-10-30T13:04:57.255Z,100698.56
2022-10-30T13:07:27.994Z,100700.69
2022-10-30T13:10:18.769Z,100696.34
2022-10-30T13:12:48.538Z,100693.97
2022-10-30T13:15:22.329Z,100699.66
2022-10-30T13:17:49.601Z,100699.47
2022-10-30T13:20:16.374Z,100700.34
2022-10-30T13:22:49.029Z,100693.41
2022-10-30T13:25:24.992Z,100692.38
2022-10-30T13:28:01.788Z,100690.41
2022-10-30T13:30:38.982Z,100684.78
2022-10-30T13:33:22.508Z,100688.78
2022-10-30T13:36:03.040Z,100678.84
2022-10-30T13:38:42.231Z,100690.06
2022-10-30T13:41:37.881Z,100685.44
2022-10-30T13:44:22.158Z,100680.28
2022-10-30T13:46:58.572Z,100680.09
2022-10-30T13:50:00.126Z,100674.41
2022-10-30T13:52:29.655Z,100681.53
2022-10-30T13:55:14.307Z,100685.34
2022-10-30T13:57:52.562Z,100684.97
2022-10-30T14:00:22.014Z,100686.84
2022-10-30T14:03:25.918Z,100686.31
2022-10-30T14:05:58.123Z,100685.88
2022-10-30T14:08:40.401Z,100683.28
2022-10-30T14:11:10.778Z,100691.84
2022-10-30T14:13:57.114Z,100678.78
2022-10-30T14:16:39.945Z,100682.25
2022-10-30T14:19:11.294Z,100678.78
2022-10-30T14:21:42.990Z,100675.88
2022-10-30T14:24:14.237Z,100685.00
2022-10-30T14:26:49.993Z,100674.25
2022-10-30T14:29:34.107Z,100677.44
2022-10-30T14:32:12.968Z,100679.75
2022-10-30T14:34:57.081Z,100680.53
2022-10-30T14:37:23.351Z,100681.75
2022-10-30T14:39:51.534Z,100666.91
2022-10-30T14:42:40.904Z,100670.63
2022-10-30T14:45:28.154Z,100677.50
2022-10-30T14:47:56.703Z,100666.72
2022-10-30T14:50:49.035Z,100667.56
2022-10-30T14:53:46.014Z,100671.13
2022-10-30T14:59:12.258Z,100678.22
2022-10-30T15:01:44.881Z,100672.84
2022-10-30T15:04:26.268Z,100670.88
2022-10-30T15:07:11.450Z,100666.56
2022-10-30T15:09:48.762Z,100670.38
2022-10-30T15:12:24.270Z,100671.88
2022-10-30T15:15:00.007Z,100674.38
2022-10-30T15:17:33.957Z,100669.69
2022-10-30T15:20:04.686Z,100674.25
2022-10-30T15:22:33.361Z,100664.06
2022-10-30T15:25:01.674Z,100680.34
2022-10-30T15:27:29.558Z,100669.34
2022-10-30T15:30:00.577Z,100677.59
2022-10-30T15:32:27.214Z,100669.28
2022-10-30T15:35:01.705Z,100671.81
2022-10-30T15:37:28.736Z,100669.94
2022-10-30T15:40:16.879Z,100674.94
2022-10-30T15:42:43.961Z,100678.38
2022-10-30T15:45:18.132Z,100677.66
2022-10-30T15:48:06.688Z,100678.28
2022-10-30T15:50:39.588Z,100677.34
2022-10-30T15:53:06.794Z,100675.34
2022-10-30T15:55:33.473Z,100678.16
2022-10-30T15:58:13.286Z,100673.91
2022-10-30T16:00:39.864Z,100678.81
2022-10-30T16:03:16.334Z,100675.66
2022-10-30T16:05:42.835Z,100679.44
2022-10-30T16:08:15.888Z,100673.69
2022-10-30T16:10:45.266Z,100673.88
2022-10-30T16:13:21.761Z,100677.81
2022-10-30T16:15:48.493Z,100676.53
2022-10-30T16:18:28.520Z,100673.34
2022-10-30T16:20:58.159Z,100676.44
2022-10-30T16:23:24.577Z,100671.13
2022-10-30T16:25:55.837Z,100673.44
2022-10-30T16:28:28.210Z,100681.81
2022-10-30T16:30:58.714Z,100680.75
2022-10-30T16:33:28.023Z,100685.09
2022-10-30T16:35:55.943Z,100688.19
2022-10-30T16:38:24.546Z,100678.47
2022-10-30T16:40:51.469Z,100686.88
2022-10-30T16:43:29.583Z,100682.41
2022-10-30T16:46:24.513Z,100676.78
2022-10-30T16:48:58.172Z,100686.94
2022-10-30T16:51:24.650Z,100684.50
2022-10-30T16:53:52.513Z,100692.06
2022-10-30T16:56:29.147Z,100700.78
2022-10-30T16:59:13.470Z,100695.31
2022-10-30T17:01:40.120Z,100708.66
2022-10-30T17:04:06.684Z,100712.53
2022-10-30T17:06:43.016Z,100714.97
2022-10-30T17:09:23.959Z,100711.72
2022-10-30T17:12:09.306Z,100721.72
2022-10-30T17:14:46.933Z,100727.19
2022-10-30T17:17:42.476Z,100738.59
2022-10-30T17:20:22.686Z,100734.56
2022-10-30T17:23:05.910Z,100731.03
2022-10-30T17:25:37.678Z,100739.56
2022-10-30T17:28:05.120Z,100745.81
2022-10-30T17:30:34.339Z,100756.06
2022-10-30T17:33:03.508Z,100750.59
2022-10-30T17:35:30.190Z,100750.75
2022-10-30T17:37:59.740Z,100754.13
2022-10-30T17:40:29.262Z,100754.72
2022-10-30T17:42:55.597Z,100754.56
2022-10-30T17:45:22.282Z,100762.75
2022-10-30T17:47:48.602Z,100765.50
2022-10-30T17:50:14.984Z,100772.53
2022-10-30T17:52:41.283Z,100777.81
2022-10-30T17:55:22.397Z,100772.31
2022-10-30T17:57:48.764Z,100772.31
2022-10-30T18:00:15.295Z,100786.91
2022-10-30T18:02:41.607Z,100790.09
2022-10-30T18:05:17.994Z,100793.47
2022-10-30T18:07:44.674Z,100797.50
2022-10-30T18:10:12.018Z,100804.69
2022-10-30T18:12:38.405Z,100810.31
2022-10-30T18:15:27.505Z,100805.41
2022-10-30T18:17:54.227Z,100811.81
2022-10-30T18:20:21.289Z,100806.63
2022-10-30T18:22:47.784Z,100812.25
2022-10-30T18:25:22.184Z,100812.88
2022-10-30T18:27:48.500Z,100810.88
2022-10-30T18:30:16.136Z,100813.00
2022-10-30T18:32:42.674Z,100815.97
2022-10-30T18:35:13.764Z,100812.75
2022-10-30T18:37:40.315Z,100813.34
2022-10-30T18:40:07.182Z,100821.06
2022-10-30T18:42:33.485Z,100820.53
2022-10-30T18:44:59.809Z,100820.44
2022-10-30T18:47:26.109Z,100824.75
2022-10-30T18:49:52.540Z,100824.47
2022-10-30T18:52:19.227Z,100832.94
2022-10-30T18:54:45.571Z,100836.19
2022-10-30T18:57:11.942Z,100836.88
2022-10-30T18:59:38.278Z,100838.81
2022-10-30T19:02:23.488Z,100847.41
2022-10-30T19:04:49.811Z,100837.09
2022-10-30T19:07:16.135Z,100839.69
2022-10-30T19:09:42.520Z,100841.94
2022-10-30T19:12:10.443Z,100836.66
2022-10-30T19:14:36.791Z,100847.56
2022-10-30T19:17:03.144Z,100844.16
2022-10-30T19:19:29.527Z,100843.34
2022-10-30T19:21:55.876Z,100848.13
2022-10-30T19:24:22.188Z,100851.66
2022-10-30T19:26:48.589Z,100860.13
2022-10-30T19:29:14.890Z,100844.59
2022-10-30T19:31:41.196Z,100854.56
2022-10-30T19:34:07.519Z,100859.72
2022-10-30T19:36:36.811Z,100860.41
2022-10-30T19:39:14.336Z,100868.72
2022-10-30T19:41:40.721Z,100862.22
2022-10-30T19:44:07.067Z,100866.09
2022-10-30T19:46:33.660Z,100868.28
2022-10-30T19:49:00.642Z,100867.47
2022-10-30T19:51:28.504Z,100867.56
2022-10-30T19:53:55.077Z,100865.81
2022-10-30T19:56:21.727Z,100864.94
2022-10-30T19:58:48.225Z,100866.16
2022-10-30T20:01:14.777Z,100865.91
2022-10-30T20:03:41.237Z,100871.44
2022-10-30T20:06:10.372Z,100866.81
2022-10-30T20:08:36.737Z,100872.09
2022-10-30T20:11:03.077Z,100874.59
2022-10-30T20:13:29.837Z,100872.47
2022-10-30T20:15:58.964Z,100865.28
2022-10-30T20:18:30.428Z,100874.25
2022-10-30T20:21:00.584Z,100872.66
2022-10-30T20:23:27.746Z,100872.38
2022-10-30T20:26:02.915Z,100871.34
2022-10-30T20:28:37.888Z,100871.75
2022-10-30T20:31:05.435Z,100864.00
2022-10-30T20:33:31.839Z,100869.03
2022-10-30T20:35:58.208Z,100876.31
2022-10-30T20:38:26.771Z,100881.72
2022-10-30T20:40:53.786Z,100884.34
2022-10-30T20:43:24.863Z,100886.47
2022-10-30T20:45:51.278Z,100891.00
2022-10-30T20:48:17.599Z,100890.41
2022-10-30T20:50:49.137Z,100897.25
2022-10-30T20:53:17.041Z,100905.22
2022-10-30T20:55:43.604Z,100899.84
2022-10-30T20:58:10.041Z,100914.97
2022-10-30T21:00:36.450Z,100914.66
2022-10-30T21:03:04.760Z,100922.25
2022-10-30T21:05:43.790Z,100914.38
2022-10-30T21:08:12.499Z,100921.81
2022-10-30T21:10:39.814Z,100928.66
2022-10-30T21:13:08.913Z,100928.06
2022-10-30T21:15:41.130Z,100945.22
2022-10-30T21:18:08.430Z,100940.88
2022-10-30T21:20:35.889Z,100954.28
2022-10-30T21:23:02.249Z,100955.78
2022-10-30T21:25:28.691Z,100956.06
2022-10-30T21:27:58.582Z,100956.34
2022-10-30T21:30:25.112Z,100957.22
2022-10-30T21:32:51.585Z,100962.47
2022-10-30T21:35:18.296Z,100963.66
2022-10-30T21:37:44.706Z,100961.47
2022-10-30T21:40:11.781Z,100957.63
2022-10-30T21:42:38.134Z,100954.81
2022-10-30T21:45:05.437Z,100951.50
2022-10-30T21:47:31.846Z,100959.09
2022-10-30T21:49:58.268Z,100963.41
2022-10-30T21:52:24.621Z,100958.50
2022-10-30T21:54:50.999Z,100958.50
2022-10-30T21:57:17.333Z,100951.34
2022-10-30T21:59:43.674Z,100953.47
2022-10-30T22:02:13.902Z,100951.47
2022-10-30T22:04:40.319Z,100953.53
2022-10-30T22:07:06.747Z,100954.84
2022-10-30T22:09:33.089Z,100959.69
2022-10-30T22:11:59.383Z,100960.22
2022-10-30T22:14:25.769Z,100959.69
2022-10-30T22:16:52.180Z,100969.66
2022-10-30T22:19:18.578Z,100976.72
2022-10-30T22:21:44.943Z,100962.59
2022-10-30T22:24:11.313Z,100961.75
2022-10-30T22:26:37.717Z,100961.09
2022-10-30T22:29:04.047Z,100964.03
2022-10-30T22:31:30.540Z,100967.47
2022-10-30T22:33:59.400Z,100977.63
2022-10-30T22:36:28.366Z,100977.44
2022-10-30T22:39:10.670Z,100972.50
2022-10-30T22:41:38.350Z,100977.66
2022-10-30T22:44:07.105Z,100973.22
2022-10-30T22:46:33.674Z,100979.47
2022-10-30T22:49:00.184Z,100990.69
2022-10-30T22:51:26.921Z,100992.38
2022-10-30T22:53:58.479Z,100991.19
2022-10-30T22:56:26.991Z,100986.47
2022-10-30T22:58:53.659Z,100986.16
2022-10-30T23:01:28.857Z,100992.50
2022-10-30T23:03:56.955Z,100983.50
2022-10-30T23:06:24.105Z,100992.28
2022-10-30T23:08:55.439Z,100995.09
2022-10-30T23:11:22.503Z,101002.06
2022-10-30T23:13:49.523Z,101009.91
2022-10-30T23:16:18.235Z,101009.84
2022-10-30T23:18:45.573Z,101017.06
2022-10-30T23:21:14.315Z,101019.06
2022-10-30T23:23:42.333Z,101023.00
2022-10-30T23:26:13.534Z,101010.38
2022-10-30T23:28:39.964Z,101012.88
2022-10-30T23:31:15.809Z,101018.81
2022-10-30T23:33:42.138Z,101023.25
2022-10-30T23:36:08.597Z,101023.03
2022-10-30T23:38:34.906Z,101027.38
2022-10-30T23:41:01.193Z,101030.31
2022-10-30T23:43:27.517Z,101032.38
2022-10-30T23:45:53.842Z,101041.00
2022-10-30T23:48:20.177Z,101041.19
2022-10-30T23:50:46.486Z,101050.50
2022-10-30T23:53:12.793Z,101043.94
2022-10-30T23:55:39.149Z,101050.50
2022-10-30T23:58:05.561Z,101057.53
